Bayview, Wisconsin
Current Conditions -  °F | °C
As of 2:52 AM on Wednesday 26 Nov 2014 (Local Time) from KMKE Reporting Station
Haze Haze  
Wind Chill:   Ceiling: Unl
Heat Index: 15°   Visibility: 6mi
Dew Point: 11°   Wind: 5mph
Humidity: 84%   Direction: 150°SSE
Pressure: 30.17"   Gusts: NA
Location:  42.9708°N, 87.8754°W
Report Text: KMKE 260852Z 15004KT 6SM BR CLR M09/M12 A3017 RMK AO2 SLP229 T10941117 58004
Loading
Personal Weather Stations






























Interactive Weather Map New forecast layout! Learn more

10-Day Weather Forecast

Advertisements
Track Severe Weather on mobile